Sherando, Virginia
Current Conditions -  °F | °C
As of 9:15 AM on Monday 20 Oct 2014 (Local Time) from KW13 Reporting Station
Clear Clear  
Wind Chill: 46°   Ceiling: Unl
Heat Index: 46°   Visibility: 10mi
Dew Point: 37°   Wind: 3mph
Humidity: 69%   Direction: 330°NNW
Pressure: 30.08"   Gusts: NA
Location:  37.9643°N, 78.9678°W
Report Text: KW13 201315Z AUTO 33003KT 10SM CLR 08/03 A3008 RMK AO1 T00800027
Loading
Personal Weather Stations






























Interactive Weather Map
Tropical Storm Tracking
New forecast layout! Learn more

10-Day Weather Forecast

Advertisements
Track Severe Weather on mobile